WEATHER

Warnervale Skycam

North West View

North West View

South West View

South West View

Sydney Airport Forecast

  • YSSY TAF

    TAF YSSY 291106Z 2912/3018 29008KT 9999 FEW030 FM292300 03012KT 9999 FEW035 FM300400 36015KT 9999 -SHRA FEW030 BKN080 RMK T 16 14 13 15 Q 1023 1021 1019 1020

  • YSSY METAR

    METAR YSSY 291700Z 35001KT 9999 FEW025 SCT180 BKN240 12/08 Q1020 RMK RF00.0/000.0

All information provided on this page is for general information and should NOT be used for flight planning.